Time;durP1;ratioP1;P1;durP2;ratioP2;P2;SDS_P1;SDS_P2;PMS_P1;PMS_P2;Temp;Humidity;BMP_temperature;BMP_pressure;BME280_temperature;BME280_humidity;BME280_pressure;Samples;Min_cycle;Max_cycle;Signal;HPM_P1;HPM_P2
2022/07/02 00:09:49;;;;;;;0.63;0.40;;;;;;;;;;20887423;28;20298;-71
2022/07/02 00:19:52;;;;;;;0.50;0.30;;;19.50;99.90;;;;;;20870595;28;20228;-71
2022/07/02 00:30:04;;;;;;;0.37;0.30;;;;;;;;;;20853441;28;20258;-71
2022/07/02 00:40:07;;;;;;;0.90;0.40;;;;;;;;;;20886590;28;20239;-71
2022/07/02 00:50:09;;;;;;;0.20;0.20;;;;;;;;;;20885511;28;20247;-71
2022/07/02 01:00:11;;;;;;;0.43;0.40;;;;;;;;;;20896619;28;20347;-71
2022/07/02 01:10:16;;;;;;;0.80;0.30;;;;;;;;;;20866911;28;20594;-71
2022/07/02 01:20:18;;;;;;;0.30;0.30;;;;;;;;;;20861613;28;20595;-71
2022/07/02 01:30:20;;;;;;;0.20;0.20;;;;;;;;;;20882276;28;20235;-71
2022/07/02 01:40:22;;;;;;;1.13;0.37;;;;;;;;;;20862704;28;20215;-71
2022/07/02 01:50:24;;;;;;;1.90;0.37;;;;;;;;;;20863748;28;20756;-71
2022/07/02 02:00:26;;;;;;;1.43;0.30;;;;;;;;;;20879395;28;20694;-71
2022/07/02 02:10:28;;;;;;;0.93;0.33;;;;;;;;;;20878816;28;20219;-71
2022/07/02 02:20:30;;;;;;;0.23;0.23;;;;;;;;;;20877013;28;20222;-71
2022/07/02 02:30:32;;;;;;;0.97;0.33;;;;;;;;;;20876678;28;20215;-74
2022/07/02 02:40:54;;;;;;;3.47;0.60;;;;;;;;;;20866179;28;20216;-73
2022/07/02 02:50:56;;;;;;;0.83;0.40;;;;;;;;;;20875377;28;20640;-74
2022/07/02 03:00:58;;;;;;;1.33;0.40;;;;;;;;;;20874464;28;20211;-74
2022/07/02 03:10:59;;;;;;;2.20;0.40;;;;;;;;;;20873516;28;20223;-74
2022/07/02 03:21:01;;;;;;;0.60;0.40;;;;;;;;;;20856525;28;20216;-74
2022/07/02 03:31:03;;;;;;;0.40;0.33;;;;;;;;;;20856039;28;20216;-73
2022/07/02 03:41:06;;;;;;;0.53;0.40;;;;;;;;;;20872599;28;20206;-73
2022/07/02 03:51:08;;;;;;;1.50;0.50;;;;;;;;;;20865798;28;20259;-73
2022/07/02 04:01:10;;;;;;;0.60;0.40;;;;;;;;;;20863074;28;20749;-73
2022/07/02 04:11:12;;;;;;;2.63;0.50;;;;;;;;;;20854100;28;20217;-73
2022/07/02 04:21:14;;;;;;;1.77;0.60;;;;;;;;;;20847921;28;20297;-74
2022/07/02 04:31:15;;;;;;;0.87;0.40;;;;;;;;;;20858713;28;20226;-74
2022/07/02 04:41:17;;;;;;;0.70;0.40;;;;;;;;;;20868087;28;20284;-74
2022/07/02 04:51:20;;;;;;;0.40;0.30;;;;;;;;;;20893717;28;20231;-74
2022/07/02 05:01:23;;;;;;;0.60;0.47;;;;;;;;;;20865784;28;20600;-73
2022/07/02 05:11:25;;;;;;;1.10;0.50;;;;;;;;;;20882320;28;20217;-74
2022/07/02 05:21:27;;;;;;;1.20;0.60;;;;;;;;;;20865413;28;20226;-74
2022/07/02 05:31:29;;;;;;;0.87;0.50;;;;;;;;;;20896722;28;20272;-73
2022/07/02 05:41:30;;;;;;;0.77;0.50;;;;;;;;;;20849936;28;20583;-74
2022/07/02 05:51:32;;;;;;;3.23;0.87;;;;;;;;;;20863344;28;20301;-73
2022/07/02 06:01:34;;;;;;;2.43;0.50;;;;;;;;;;20859052;28;20206;-72
2022/07/02 06:11:36;;;;;;;0.73;0.47;;;;;;;;;;20878621;28;20705;-73
2022/07/02 06:21:38;;;;;;;0.40;0.37;;;18.70;99.90;;;;;;20851364;28;20230;-71
2022/07/02 06:31:40;;;;;;;0.83;0.60;;;;;;;;;;20862104;28;20222;-72
2022/07/02 06:52:02;;;;;;;0.60;0.40;;;;;;;;;;20875265;28;20586;-71
2022/07/02 07:02:05;;;;;;;0.83;0.50;;;;;;;;;;20873421;28;20215;-71
2022/07/02 07:12:07;;;;;;;1.13;0.50;;;;;;;;;;20863888;28;20222;-71
2022/07/02 07:22:09;;;;;;;0.67;0.60;;;;;;;;;;20865148;28;20219;-71
2022/07/02 07:32:11;;;;;;;0.60;0.30;;;;;;;;;;20880965;28;20273;-71
2022/07/02 07:42:14;;;;;;;1.03;0.50;;;;;;;;;;20855713;28;20686;-71
2022/07/02 07:52:16;;;;;;;0.87;0.40;;;;;;;;;;20855326;28;20222;-70
2022/07/02 08:02:18;;;;;;;0.60;0.50;;;;;;;;;;20863662;28;20203;-70
2022/07/02 08:12:21;;;;;;;0.77;0.40;;;;;;;;;;20825424;28;20602;-71
2022/07/02 08:22:23;;;;;;;0.73;0.30;;;;;;;;;;20886963;28;20226;-70
2022/07/02 08:32:25;;;;;;;0.40;0.30;;;21.60;99.90;;;;;;20972950;22;20223;-76
2022/07/02 08:42:29;;;;;;;0.50;0.30;;;22.00;99.90;;;;;;21099578;28;20217;-76
2022/07/02 08:52:31;;;;;;;2.15;0.50;;;;;;;;;;21154536;28;20595;-76
2022/07/02 09:02:34;;;;;;;0.33;0.30;;;;;;;;;;21164147;28;20203;-76
2022/07/02 09:12:36;;;;;;;0.35;0.30;;;;;;;;;;21154420;28;20213;-76
2022/07/02 09:22:40;;;;;;;0.43;0.30;;;;;;;;;;21157507;28;20265;-76
2022/07/02 09:32:43;;;;;;;0.30;0.20;;;23.10;99.90;;;;;;21163440;28;20216;-76
2022/07/02 09:42:46;;;;;;;0.75;0.50;;;;;;;;;;21152700;28;20204;-77
2022/07/02 09:52:48;;;;;;;0.30;0.30;;;;;;;;;;21133893;28;20216;-76
2022/07/02 10:02:52;;;;;;;0.30;0.30;;;24.10;99.90;;;;;;21119153;28;20555;-76
2022/07/02 10:12:56;;;;;;;0.47;0.30;;;24.10;99.90;;;;;;21108524;28;20231;-76
2022/07/02 10:23:00;;;;;;;0.22;0.20;;;;;;;;;;21075457;28;20255;-76
2022/07/02 10:33:18;;;;;;;0.45;0.40;;;24.70;94.40;;;;;;21057100;28;20589;-76
2022/07/02 10:43:20;;;;;;;0.50;0.40;;;;;;;;;;21075871;28;20260;-76
2022/07/02 10:53:24;;;;;;;0.25;0.25;;;25.10;96.20;;;;;;21144320;28;20220;-76
2022/07/02 11:03:27;;;;;;;0.35;0.20;;;;;;;;;;21147280;28;20209;-76
2022/07/02 11:13:47;;;;;;;0.70;0.25;;;25.50;97.80;;;;;;21154982;28;20235;-77
2022/07/02 11:23:50;;;;;;;1.25;0.30;;;25.30;96.60;;;;;;21154307;28;20205;-76
2022/07/02 11:33:52;;;;;;;0.30;0.25;;;;;;;;;;21135347;28;20234;-76
2022/07/02 11:43:58;;;;;;;0.20;0.20;;;;;;;;;;21141181;28;20206;-77
2022/07/02 11:54:01;;;;;;;0.50;0.30;;;;;;;;;;21138328;28;20331;-77
2022/07/02 12:04:05;;;;;;;0.20;0.20;;;;;;;;;;21091645;28;20732;-76
2022/07/02 12:14:07;;;;;;;0.70;0.30;;;;;;;;;;21099642;28;20689;-77
2022/07/02 12:24:24;;;;;;;0.47;0.20;;;26.70;90.20;;;;;;21133090;28;20202;-76
2022/07/02 12:34:42;;;;;;;0.40;0.20;;;26.90;90.90;;;;;;21099052;28;20270;-72
2022/07/02 12:45:06;;;;;;;0.20;0.20;;;27.10;86.10;;;;;;21130501;28;20202;-74
2022/07/02 12:55:18;;;;;;;0.73;0.38;;;27.00;84.80;;;;;;21151091;28;20271;-73
2022/07/02 13:05:21;;;;;;;0.20;0.20;;;;;;;;;;21110139;28;20210;-77
2022/07/02 13:15:22;;;;;;;0.15;0.15;;;27.20;80.50;;;;;;21081419;28;20319;-76
2022/07/02 13:25:24;;;;;;;0.20;0.20;;;;;;;;;;21091877;28;20630;-74
2022/07/02 13:35:26;;;;;;;0.60;0.20;;;;;;;;;;21148168;28;20290;-75
2022/07/02 13:45:28;;;;;;;0.52;0.30;;;;;;;;;;21144766;28;20208;-75
2022/07/02 13:55:30;;;;;;;0.90;0.20;;;;;;;;;;21160214;28;20611;-75
2022/07/02 14:05:32;;;;;;;0.28;0.20;;;;;;;;;;21159033;28;20214;-73
2022/07/02 14:15:34;;;;;;;0.25;0.25;;;;;;;;;;21128302;28;20253;-75
2022/07/02 14:25:35;;;;;;;0.82;0.40;;;;;;;;;;21160424;28;20206;-75
2022/07/02 14:35:37;;;;;;;0.30;0.20;;;;;;;;;;20985077;22;20239;-74
2022/07/02 14:45:39;;;;;;;0.43;0.30;;;;;;;;;;20908699;28;20205;-75
2022/07/02 14:55:41;;;;;;;0.20;0.20;;;;;;;;;;20908757;28;20219;-75
2022/07/02 15:05:43;;;;;;;0.68;0.38;;;;;;;;;;20908221;28;20220;-75
2022/07/02 15:16:02;;;;;;;0.75;0.30;;;;;;;;;;20887234;28;20291;-75
2022/07/02 15:26:04;;;;;;;0.85;0.52;;;;;;;;;;20897459;28;20216;-74
2022/07/02 15:36:06;;;;;;;2.00;0.40;;;;;;;;;;20895907;28;20278;-75
2022/07/02 15:46:08;;;;;;;0.20;0.20;;;;;;;;;;20898914;28;20256;-75
2022/07/02 15:56:11;;;;;;;0.43;0.30;;;29.00;73.50;;;;;;20854650;28;20225;-75
2022/07/02 16:06:14;;;;;;;0.32;0.20;;;28.90;80.70;;;;;;20827924;28;20723;-74
2022/07/02 16:16:16;;;;;;;0.10;0.10;;;;;;;;;;20900823;28;20583;-74
2022/07/02 16:26:19;;;;;;;0.52;0.20;;;;;;;;;;20904052;28;20225;-75
2022/07/02 16:36:22;;;;;;;0.28;0.28;;;;;;;;;;20917561;28;20237;-74
2022/07/02 16:46:25;;;;;;;0.70;0.20;;;29.00;75.60;;;;;;20858470;28;20206;-75
2022/07/02 16:56:27;;;;;;;0.30;0.20;;;;;;;;;;20833687;28;20222;-74
2022/07/02 17:06:29;;;;;;;0.57;0.40;;;;;;;;;;20887572;28;20271;-75
2022/07/02 17:16:31;;;;;;;0.10;0.10;;;;;;;;;;20907902;28;20302;-75
2022/07/02 17:26:33;;;;;;;0.20;0.20;;;;;;;;;;20868595;28;20680;-75
2022/07/02 17:36:35;;;;;;;0.10;0.10;;;;;;;;;;20840261;28;20223;-73
2022/07/02 17:46:38;;;;;;;0.20;0.20;;;;;;;;;;20897510;28;20683;-76
2022/07/02 17:56:39;;;;;;;0.20;0.20;;;;;;;;;;20907591;28;20609;-75
2022/07/02 18:06:41;;;;;;;0.20;0.20;;;;;;;;;;20909932;28;20220;-76
2022/07/02 18:16:43;;;;;;;2.85;1.33;;;;;;;;;;20911166;28;20228;-75
2022/07/02 18:26:45;;;;;;;0.55;0.20;;;;;;;;;;20892246;28;20227;-74
2022/07/02 18:36:47;;;;;;;0.17;0.17;;;;;;;;;;20908756;28;20269;-75
2022/07/02 18:46:48;;;;;;;0.20;0.20;;;;;;;;;;20901274;28;20250;-73
2022/07/02 18:56:51;;;;;;;0.68;0.20;;;;;;;;;;20902894;28;20275;-74
2022/07/02 19:06:52;;;;;;;0.17;0.17;;;;;;;;;;20891564;28;20283;-74
2022/07/02 19:16:54;;;;;;;0.82;0.35;;;;;;;;;;20904240;28;20597;-73
2022/07/02 19:37:20;;;;;;;0.40;0.30;;;;;;;;;;20898907;28;20251;-74
2022/07/02 19:47:22;;;;;;;0.88;0.50;;;;;;;;;;20873523;28;20188;-74
2022/07/02 19:57:24;;;;;;;1.27;0.70;;;;;;;;;;20819640;28;20193;-74
2022/07/02 20:07:26;;;;;;;1.13;0.80;;;26.10;99.90;;;;;;20819826;28;20233;-74
2022/07/02 20:17:28;;;;;;;0.85;0.38;;;;;;;;;;20857928;28;20255;-74
2022/07/02 20:27:30;;;;;;;3.97;0.90;;;;;;;;;;20901052;28;20186;-74
2022/07/02 20:37:32;;;;;;;2.15;0.50;;;;;;;;;;20901847;28;20200;-74
2022/07/02 20:47:35;;;;;;;0.90;0.40;;;25.20;96.80;;;;;;20900150;28;20221;-74
2022/07/02 20:57:38;;;;;;;0.80;0.40;;;24.70;99.90;;;;;;20882324;28;20741;-74
2022/07/02 21:07:40;;;;;;;0.40;0.28;;;;;;;;;;20901446;28;20283;-74
2022/07/02 21:17:43;;;;;;;0.32;0.25;;;;;;;;;;20908875;28;20329;-74
2022/07/02 21:27:45;;;;;;;2.47;0.30;;;;;;;;;;20914771;28;20631;-74
2022/07/02 21:37:47;;;;;;;0.43;0.30;;;;;;;;;;20913022;28;20221;-74
2022/07/02 21:47:49;;;;;;;1.10;0.57;;;24.70;99.90;;;;;;20911207;28;20224;-74
2022/07/02 21:57:51;;;;;;;0.77;0.40;;;;;;;;;;20913109;28;20201;-74
2022/07/02 22:07:52;;;;;;;3.30;0.70;;;;;;;;;;20911846;28;20358;-74
2022/07/02 22:17:54;;;;;;;1.30;0.43;;;;;;;;;;20911482;28;20211;-74
2022/07/02 22:27:56;;;;;;;0.98;0.40;;;;;;;;;;20909798;28;20281;-74
2022/07/02 22:37:59;;;;;;;3.17;0.55;;;;;;;;;;20906902;28;20225;-74
2022/07/02 22:48:01;;;;;;;0.57;0.43;;;;;;;;;;20910735;28;20293;-74
2022/07/02 22:58:03;;;;;;;0.85;0.40;;;23.80;99.90;;;;;;20908058;28;20260;-74
2022/07/02 23:08:05;;;;;;;3.65;0.60;;;;;;;;;;20872171;28;20219;-74
2022/07/02 23:18:07;;;;;;;0.93;0.40;;;;;;;;;;20899821;28;20283;-74
2022/07/02 23:28:09;;;;;;;1.45;0.60;;;;;;;;;;20904710;28;20633;-74
2022/07/02 23:38:11;;;;;;;1.65;0.40;;;;;;;;;;20902554;28;20229;-74
2022/07/02 23:48:13;;;;;;;2.35;0.65;;;;;;;;;;20899184;28;20683;-74
2022/07/02 23:58:15;;;;;;;0.90;0.52;;;;;;;;;;20903824;28;20574;-74
